Terminal Aerodrome Forecast
Issued by NWS

Home | Current Version | Previous Version | Text Only | Print | Product List | Glossary On
Versions: 1 2 3 4 5 6 7 8 9 10 11 12 13 14 15 16 17 18 19 20 21
000
FTUS41 KPHI 300538
TAFMIV
TAF
KMIV 300538Z 3006/3106 02006KT P6SM FEW250
     FM301500 07005KT P6SM SCT250
     FM301700 14004KT P6SM FEW090 BKN180
     FM310300 13008KT P6SM SCT040 OVC070 PROB30 3105/3106 5SM -RA
      BKN035=

USA.gov is the U.S. government's official web portal to all federal, state and local government web resources and services.